createdAt,value
2017-03-13T00:01:15.364Z,0
2017-03-13T00:03:02.741Z,0
2017-03-13T00:04:45.221Z,0
2017-03-13T00:06:37.759Z,0
2017-03-13T00:08:30.243Z,0
2017-03-13T00:10:12.810Z,0
2017-03-13T00:12:05.379Z,0
2017-03-13T00:14:03.389Z,0
2017-03-13T00:16:00.654Z,0
2017-03-13T00:17:42.993Z,0
2017-03-13T00:19:40.233Z,0
2017-03-13T00:21:37.680Z,0
2017-03-13T00:23:35.087Z,0
2017-03-13T00:25:27.699Z,0
2017-03-13T00:27:10.026Z,0
2017-03-13T00:29:12.426Z,0
2017-03-13T00:30:59.770Z,0
2017-03-13T00:33:02.187Z,0
2017-03-13T00:34:49.484Z,0
2017-03-13T00:36:32.853Z,0
2017-03-13T00:38:20.272Z,0
2017-03-13T00:40:07.503Z,0
2017-03-13T00:42:04.981Z,0
2017-03-13T00:44:02.244Z,0
2017-03-13T00:45:50.546Z,0
2017-03-13T00:47:43.378Z,0
2017-03-13T00:49:35.804Z,0
2017-03-13T00:51:23.189Z,0
2017-03-13T00:53:33.773Z,0
2017-03-13T00:55:53.777Z,0
2017-03-13T00:57:41.244Z,0
2017-03-13T00:59:33.575Z,0
2017-03-13T01:01:15.995Z,0
2017-03-13T01:02:58.596Z,0
2017-03-13T01:04:41.009Z,0
2017-03-13T01:06:33.318Z,0
2017-03-13T01:08:25.728Z,0
2017-03-13T01:10:13.097Z,0
2017-03-13T01:12:00.322Z,0
2017-03-13T01:13:37.984Z,0
2017-03-13T01:15:20.270Z,0
2017-03-13T01:17:12.660Z,0
2017-03-13T01:18:55.092Z,0
2017-03-13T01:20:52.569Z,0
2017-03-13T01:22:40.257Z,0
2017-03-13T01:24:38.762Z,0
2017-03-13T01:26:26.119Z,0
2017-03-13T01:28:18.651Z,0
2017-03-13T01:30:01.051Z,0
2017-03-13T01:31:48.360Z,0
2017-03-13T01:33:46.670Z,0
2017-03-13T01:35:39.334Z,0
2017-03-13T01:37:26.649Z,0
2017-03-13T01:39:24.001Z,0
2017-03-13T01:41:11.281Z,0
2017-03-13T01:42:58.547Z,0
2017-03-13T01:44:45.789Z,0
2017-03-13T01:46:28.178Z,0
2017-03-13T01:48:15.539Z,0
2017-03-13T01:50:08.050Z,0
2017-03-13T01:52:00.393Z,0
2017-03-13T01:53:52.815Z,0
2017-03-13T01:55:40.697Z,0
2017-03-13T01:57:23.212Z,0
2017-03-13T01:59:25.591Z,0
2017-03-13T02:01:22.921Z,0
2017-03-13T02:03:15.468Z,0
2017-03-13T02:04:57.887Z,0
2017-03-13T02:06:45.227Z,0
2017-03-13T02:08:37.548Z,0
2017-03-13T02:10:14.805Z,0
2017-03-13T02:12:07.121Z,0
2017-03-13T02:13:49.713Z,0
2017-03-13T02:15:42.015Z,0
2017-03-13T02:17:19.370Z,0
2017-03-13T02:18:56.695Z,0
2017-03-13T02:20:44.007Z,0
2017-03-13T02:22:31.322Z,0
2017-03-13T02:24:18.871Z,0
2017-03-13T02:26:16.098Z,0
2017-03-13T02:28:08.833Z,0
2017-03-13T02:30:11.384Z,0
2017-03-13T02:32:08.672Z,0
2017-03-13T02:34:01.057Z,0
2017-03-13T02:35:48.608Z,0
2017-03-13T02:37:41.021Z,0
2017-03-13T02:39:28.680Z,0
2017-03-13T02:41:21.204Z,0
2017-03-13T02:43:13.505Z,0
2017-03-13T02:45:05.971Z,0
2017-03-13T02:47:03.323Z,0
2017-03-13T02:48:40.937Z,0
2017-03-13T02:50:23.239Z,0
2017-03-13T02:52:15.580Z,0
2017-03-13T02:54:02.915Z,0
2017-03-13T02:55:55.451Z,0
2017-03-13T02:57:52.829Z,0
2017-03-13T02:59:35.335Z,0
2017-03-13T03:01:17.887Z,0
2017-03-13T03:03:10.959Z,0
2017-03-13T03:05:08.422Z,0
2017-03-13T03:07:00.715Z,0
2017-03-13T03:08:48.262Z,0
2017-03-13T03:10:35.721Z,0
2017-03-13T03:12:33.164Z,0
2017-03-13T03:14:35.433Z,0
2017-03-13T03:16:37.668Z,0
2017-03-13T03:18:25.031Z,0
2017-03-13T03:20:02.435Z,0
2017-03-13T03:21:44.783Z,0
2017-03-13T03:23:37.098Z,0
2017-03-13T03:25:34.774Z,0
2017-03-13T03:27:22.074Z,0
2017-03-13T03:29:24.406Z,0
2017-03-13T03:31:11.786Z,0
2017-03-13T03:32:59.141Z,0
2017-03-13T03:34:46.421Z,0
2017-03-13T03:36:34.003Z,0
2017-03-13T03:38:31.772Z,0
2017-03-13T03:40:29.176Z,0
2017-03-13T03:42:26.540Z,0
2017-03-13T03:44:18.971Z,0
2017-03-13T03:46:06.266Z,0
2017-03-13T03:47:53.547Z,0
2017-03-13T03:49:40.735Z,0
2017-03-13T03:51:23.165Z,0
2017-03-13T03:53:10.448Z,0
2017-03-13T03:54:52.888Z,0
2017-03-13T03:56:40.108Z,0
2017-03-13T03:58:32.603Z,0
2017-03-13T04:00:29.834Z,0
2017-03-13T04:02:32.044Z,0
2017-03-13T04:04:19.811Z,0
2017-03-13T04:06:11.368Z,0
2017-03-13T04:08:16.235Z,0
2017-03-13T04:10:08.585Z,0
2017-03-13T04:12:07.659Z,0
2017-03-13T04:14:00.347Z,0
2017-03-13T04:15:48.151Z,0
2017-03-13T04:17:36.694Z,0
2017-03-13T04:19:35.846Z,0
2017-03-13T04:21:40.876Z,0
2017-03-13T04:23:29.605Z,0
2017-03-13T04:25:18.678Z,0
2017-03-13T04:27:22.072Z,0
2017-03-13T04:29:14.373Z,0
2017-03-13T04:31:02.246Z,0
2017-03-13T04:33:12.439Z,0
2017-03-13T04:35:09.997Z,0
2017-03-13T04:37:13.273Z,0
2017-03-13T04:39:21.684Z,0
2017-03-13T04:41:21.195Z,0
2017-03-13T04:43:14.310Z,0
2017-03-13T04:45:06.784Z,0
2017-03-13T04:47:05.155Z,0
2017-03-13T04:49:01.692Z,0
2017-03-13T04:50:45.659Z,0
2017-03-13T04:52:44.760Z,0
2017-03-13T04:54:43.681Z,0
2017-03-13T04:56:46.120Z,0
2017-03-13T04:58:28.945Z,0
2017-03-13T05:00:06.698Z,0
2017-03-13T05:01:54.758Z,0
2017-03-13T05:03:48.207Z,0
2017-03-13T05:05:50.630Z,0
2017-03-13T05:07:35.036Z,0
2017-03-13T05:09:27.587Z,0
2017-03-13T05:11:26.110Z,0
2017-03-13T05:13:19.494Z,0
2017-03-13T05:15:13.817Z,0
2017-03-13T05:17:01.325Z,0
2017-03-13T05:18:54.881Z,0
2017-03-13T05:21:02.265Z,5
2017-03-13T05:23:11.147Z,5
2017-03-13T05:25:14.303Z,5
2017-03-13T05:27:06.751Z,10
2017-03-13T05:28:45.975Z,10
2017-03-13T05:30:34.029Z,15
2017-03-13T05:32:33.305Z,15
2017-03-13T05:34:32.120Z,20
2017-03-13T05:36:31.577Z,25
2017-03-13T05:38:24.130Z,25
2017-03-13T05:40:39.999Z,30
2017-03-13T05:42:33.551Z,35
2017-03-13T05:44:33.801Z,40
2017-03-13T05:46:35.155Z,45
2017-03-13T05:48:28.904Z,50
2017-03-13T05:50:29.422Z,55
2017-03-13T05:52:26.556Z,60
2017-03-13T05:54:44.111Z,65
2017-03-13T05:57:17.529Z,70
2017-03-13T05:59:25.277Z,75
2017-03-13T06:01:41.907Z,80
2017-03-13T06:04:11.044Z,85
2017-03-13T06:06:04.111Z,95
2017-03-13T06:08:01.433Z,100
2017-03-13T06:10:14.476Z,105
2017-03-13T06:12:13.441Z,110
2017-03-13T06:14:20.985Z,115
2017-03-13T06:16:08.344Z,115
2017-03-13T06:17:55.796Z,125
2017-03-13T06:19:44.900Z,125
2017-03-13T06:21:38.631Z,130
2017-03-13T06:23:31.819Z,135
2017-03-13T06:25:35.138Z,140
2017-03-13T06:27:29.362Z,140
2017-03-13T06:29:12.435Z,140
2017-03-13T06:31:05.788Z,140
2017-03-13T06:32:53.721Z,140
2017-03-13T06:34:43.303Z,145
2017-03-13T06:36:37.643Z,145
2017-03-13T06:38:31.255Z,150
2017-03-13T06:40:13.802Z,170
2017-03-13T06:42:11.817Z,175
2017-03-13T06:44:04.750Z,170
2017-03-13T06:46:03.164Z,170
2017-03-13T06:47:51.314Z,165
2017-03-13T06:49:49.698Z,165
2017-03-13T06:51:35.758Z,170
2017-03-13T06:53:23.087Z,175
2017-03-13T06:55:05.599Z,165
2017-03-13T06:56:58.694Z,165
2017-03-13T06:59:01.198Z,170
2017-03-13T07:00:53.668Z,170
2017-03-13T07:02:46.224Z,185
2017-03-13T07:04:48.799Z,175
2017-03-13T07:06:46.447Z,180
2017-03-13T07:08:43.846Z,195
2017-03-13T07:10:46.463Z,190
2017-03-13T07:12:38.827Z,185
2017-03-13T07:14:31.221Z,180
2017-03-13T07:16:33.646Z,185
2017-03-13T07:18:36.187Z,190
2017-03-13T07:20:23.709Z,190
2017-03-13T07:22:06.119Z,200
2017-03-13T07:24:04.028Z,190
2017-03-13T07:26:01.718Z,195
2017-03-13T07:27:54.004Z,190
2017-03-13T07:29:46.721Z,195
2017-03-13T07:31:44.392Z,205
2017-03-13T07:33:42.839Z,215
2017-03-13T07:35:35.465Z,225
2017-03-13T07:37:32.851Z,220
2017-03-13T07:39:36.269Z,210
2017-03-13T07:41:39.650Z,210
2017-03-13T07:43:37.149Z,210
2017-03-13T07:45:20.037Z,235
2017-03-13T07:47:12.966Z,260
2017-03-13T07:49:20.874Z,285
2017-03-13T07:51:18.201Z,280
2017-03-13T07:53:09.491Z,285
2017-03-13T07:55:03.674Z,325
2017-03-13T07:56:51.151Z,320
2017-03-13T07:58:43.528Z,290
2017-03-13T08:00:31.004Z,305
2017-03-13T08:02:18.612Z,345
2017-03-13T08:04:06.083Z,350
2017-03-13T08:05:48.471Z,335
2017-03-13T08:07:45.998Z,345
2017-03-13T08:09:43.239Z,345
2017-03-13T08:11:25.535Z,345
2017-03-13T08:13:13.043Z,380
2017-03-13T08:15:20.960Z,445
2017-03-13T08:17:23.396Z,455
2017-03-13T08:19:15.666Z,450
2017-03-13T08:21:07.949Z,405
2017-03-13T08:23:00.204Z,385
2017-03-13T08:24:47.506Z,360
2017-03-13T08:26:50.855Z,370
2017-03-13T08:28:39.311Z,365
2017-03-13T08:34:27.837Z,360
2017-03-13T08:36:28.463Z,355
2017-03-13T08:38:39.785Z,325
2017-03-13T08:40:40.456Z,295
2017-03-13T08:42:49.982Z,380
2017-03-13T08:45:02.234Z,375
2017-03-13T08:47:15.215Z,355
2017-03-13T08:49:21.916Z,300
2017-03-13T08:51:28.723Z,305
2017-03-13T08:54:02.812Z,360
2017-03-13T08:56:47.858Z,300
2017-03-13T08:59:35.750Z,320
2017-03-13T09:02:16.104Z,375
2017-03-13T09:04:47.644Z,420
2017-03-13T09:07:14.354Z,390
2017-03-13T09:09:46.053Z,455
2017-03-13T09:12:08.601Z,445
2017-03-13T09:14:38.517Z,445
2017-03-13T09:17:05.295Z,450
2017-03-13T09:19:34.353Z,655
2017-03-13T09:22:18.048Z,1350
2017-03-13T09:24:30.695Z,1390
2017-03-13T09:26:18.379Z,1415
2017-03-13T09:28:25.936Z,1460
2017-03-13T09:30:08.551Z,1480
2017-03-13T09:31:55.943Z,1510
2017-03-13T09:33:53.430Z,1510
2017-03-13T09:35:40.855Z,1540
2017-03-13T09:37:28.160Z,1565
2017-03-13T09:39:30.619Z,1545
2017-03-13T09:41:32.867Z,1520
2017-03-13T09:43:37.415Z,1625
2017-03-13T09:45:34.776Z,1655
2017-03-13T09:47:35.800Z,1705
2017-03-13T09:49:37.238Z,1735
2017-03-13T09:51:46.363Z,1820
2017-03-13T09:53:44.579Z,1895
2017-03-13T09:55:31.918Z,1960
2017-03-13T09:57:24.380Z,1500
2017-03-13T09:59:11.776Z,1620
2017-03-13T10:01:09.850Z,1720
2017-03-13T10:03:07.815Z,1570
2017-03-13T10:04:50.722Z,2045
2017-03-13T10:06:43.582Z,1460
2017-03-13T10:08:36.563Z,1020
2017-03-13T10:10:34.437Z,1965
2017-03-13T10:12:37.213Z,1980
2017-03-13T10:14:30.112Z,1610
2017-03-13T10:16:22.837Z,1385
2017-03-13T10:18:10.159Z,1500
2017-03-13T10:19:57.631Z,1855
2017-03-13T10:23:50.492Z,1930
2017-03-13T10:25:58.368Z,1495
2017-03-13T10:27:40.772Z,1090
2017-03-13T10:29:38.135Z,810
2017-03-13T10:31:20.676Z,1735
2017-03-13T10:33:03.197Z,1850
2017-03-13T10:34:55.631Z,1995
2017-03-13T10:36:53.214Z,1990
2017-03-13T10:38:45.768Z,1880
2017-03-13T10:40:28.177Z,2145
2017-03-13T10:42:10.585Z,2455
2017-03-13T10:43:53.012Z,3230
2017-03-13T10:45:55.421Z,3760
2017-03-13T10:47:52.961Z,3700
2017-03-13T10:49:40.312Z,3835
2017-03-13T10:51:32.704Z,4080
2017-03-13T10:53:15.180Z,3880
2017-03-13T10:55:07.668Z,3860
2017-03-13T10:56:50.018Z,3595
2017-03-13T10:58:42.422Z,3670
2017-03-13T11:00:29.934Z,3955
2017-03-13T11:02:28.030Z,4025
2017-03-13T11:04:11.389Z,3925
2017-03-13T11:06:08.758Z,4310
2017-03-13T11:08:06.043Z,3685
2017-03-13T11:10:03.336Z,3515
2017-03-13T11:12:06.196Z,3770
2017-03-13T11:13:58.909Z,3795
2017-03-13T11:15:51.362Z,3760
2017-03-13T11:17:43.865Z,3710
2017-03-13T11:19:31.669Z,3730
2017-03-13T11:21:14.083Z,3490
2017-03-13T11:23:01.492Z,3350
2017-03-13T11:24:43.946Z,3655
2017-03-13T11:26:41.519Z,3565
2017-03-13T11:28:33.935Z,3320
2017-03-13T11:30:26.428Z,3365
2017-03-13T11:32:23.927Z,3370
2017-03-13T11:34:16.406Z,3270
2017-03-13T11:35:59.010Z,2935
2017-03-13T11:37:42.284Z,3360
2017-03-13T11:39:34.612Z,3470
2017-03-13T11:41:22.233Z,3315
2017-03-13T11:43:20.049Z,2995
2017-03-13T11:45:22.577Z,3000
2017-03-13T11:47:11.437Z,3205
2017-03-13T11:48:53.939Z,3160
2017-03-13T11:50:52.123Z,3080
2017-03-13T11:52:54.604Z,3250
2017-03-13T11:54:51.949Z,3235
2017-03-13T11:56:39.538Z,3075
2017-03-13T11:58:21.864Z,3190
2017-03-13T12:00:09.476Z,3135
2017-03-13T12:02:01.763Z,3070
2017-03-13T12:03:50.976Z,3325
2017-03-13T12:05:38.338Z,3425
2017-03-13T12:07:30.725Z,3160
2017-03-13T12:09:23.090Z,3035
2017-03-13T12:11:10.539Z,3140
2017-03-13T12:12:52.868Z,3010
2017-03-13T12:14:30.335Z,3220
2017-03-13T12:16:32.859Z,3425
2017-03-13T12:18:13.049Z,3140
2017-03-13T12:20:05.851Z,3145
2017-03-13T12:22:03.472Z,3265
2017-03-13T12:23:51.816Z,3235
2017-03-13T12:25:44.248Z,3225
2017-03-13T12:27:46.705Z,3000
2017-03-13T12:29:34.188Z,2730
2017-03-13T12:31:26.768Z,2915
2017-03-13T12:33:19.163Z,2845
2017-03-13T12:35:11.420Z,2900
2017-03-13T12:37:08.758Z,2815
2017-03-13T12:39:06.049Z,2910
2017-03-13T12:40:58.374Z,3345
2017-03-13T12:42:40.921Z,3000
2017-03-13T12:44:29.281Z,3110
2017-03-13T12:46:21.613Z,3140
2017-03-13T12:50:04.823Z,3175
2017-03-13T12:55:35.538Z,2920
2017-03-13T12:57:28.600Z,2995
2017-03-13T12:59:41.804Z,2905
2017-03-13T13:01:54.866Z,2670
2017-03-13T13:04:09.072Z,2875
2017-03-13T13:06:21.845Z,2750
2017-03-13T13:08:36.375Z,2730
2017-03-13T13:10:51.388Z,2635
2017-03-13T13:13:00.422Z,2800
2017-03-13T13:15:16.138Z,2840
